createdAt,value
2018-01-13T00:01:28.501Z,21.7
2018-01-13T00:04:25.737Z,21.7
2018-01-13T00:07:22.487Z,21.7
2018-01-13T00:19:10.629Z,21.8
2018-01-13T00:25:04.591Z,21.8
2018-01-13T00:28:01.499Z,21.8
2018-01-13T00:30:58.665Z,21.8
2018-01-13T00:33:55.482Z,21.8
2018-01-13T00:36:53.230Z,21.8
2018-01-13T00:39:49.619Z,21.9
2018-01-13T00:45:44.601Z,21.9
2018-01-13T00:51:37.624Z,21.8
2018-01-13T00:57:31.533Z,21.9
2018-01-13T01:00:28.463Z,22
2018-01-13T01:03:25.602Z,22
2018-01-13T01:09:20.557Z,22.1
2018-01-13T01:12:17.592Z,22.2
2018-01-13T01:15:13.563Z,22.2
2018-01-13T01:21:07.568Z,22.4
2018-01-13T01:24:04.623Z,22.4
2018-01-13T01:27:01.717Z,22.4
2018-01-13T01:29:58.516Z,22.4
2018-01-13T01:35:52.551Z,22.6
2018-01-13T01:41:46.669Z,22.6
2018-01-13T01:44:43.537Z,22.7
2018-01-13T01:47:40.588Z,22.8
2018-01-13T01:50:37.699Z,22.8
2018-01-13T01:53:34.695Z,22.9
2018-01-13T01:56:31.653Z,23
2018-01-13T01:59:28.594Z,23
2018-01-13T02:02:25.585Z,23
2018-01-13T02:05:22.999Z,23.1
2018-01-13T02:08:19.633Z,23.2
2018-01-13T02:11:16.636Z,23.2
2018-01-13T02:17:10.768Z,23.4
2018-01-13T02:20:07.547Z,23.4
2018-01-13T02:23:04.592Z,23.5
2018-01-13T02:26:01.523Z,23.6
2018-01-13T02:28:58.644Z,23.6
2018-01-13T02:34:52.587Z,23.8
2018-01-13T02:37:49.601Z,23.8
2018-01-13T02:40:46.769Z,23.9
2018-01-13T02:43:44.578Z,24
2018-01-13T02:46:40.619Z,24
2018-01-13T02:49:37.599Z,24
2018-01-13T02:52:34.580Z,24
2018-01-13T03:01:25.616Z,24.2
2018-01-13T03:04:22.624Z,24.4
2018-01-13T03:07:19.606Z,24.4
2018-01-13T03:13:13.821Z,24.6
2018-01-13T03:19:07.675Z,24.7
2018-01-13T03:22:04.560Z,24.8
2018-01-13T03:25:01.901Z,24.9
2018-01-13T03:27:58.585Z,25
2018-01-13T03:30:55.760Z,25
2018-01-13T03:33:53.578Z,25
2018-01-13T03:39:48.069Z,25.1
2018-01-13T03:48:37.898Z,25.4
2018-01-13T03:54:32.773Z,25.6
2018-01-13T03:57:28.559Z,25.6
2018-01-13T04:00:25.637Z,25.6
2018-01-13T04:03:22.574Z,25.5
2018-01-13T04:06:19.743Z,25.6
2018-01-13T04:09:16.553Z,25.7
2018-01-13T04:12:13.833Z,25.7
2018-01-13T04:15:11.629Z,25.8
2018-01-13T04:18:07.681Z,25.9
2018-01-13T04:21:04.585Z,26
2018-01-13T04:24:01.703Z,26.1
2018-01-13T04:26:58.615Z,26.2
2018-01-13T04:29:55.630Z,26.3
2018-01-13T04:32:52.947Z,26.3
2018-01-13T04:35:49.645Z,26.3
2018-01-13T04:38:46.588Z,26.4
2018-01-13T04:41:44.738Z,26.5
2018-01-13T04:44:40.636Z,26.6
2018-01-13T04:47:37.796Z,26.6
2018-01-13T04:50:34.632Z,26.7
2018-01-13T04:53:31.704Z,26.8
2018-01-13T04:56:28.583Z,26.9
2018-01-13T04:59:25.772Z,27
2018-01-13T05:02:22.590Z,27.1
2018-01-13T05:05:19.701Z,27
2018-01-13T05:14:10.980Z,27.1
2018-01-13T05:17:07.602Z,27.2
2018-01-13T05:20:04.778Z,27.2
2018-01-13T05:23:01.801Z,27.2
2018-01-13T05:28:55.769Z,27.3
2018-01-13T05:34:49.779Z,27.7
2018-01-13T05:37:46.638Z,27.6
2018-01-13T05:43:40.765Z,27.8
2018-01-13T05:46:38.726Z,27.9
2018-01-13T05:55:28.884Z,28.1
2018-01-13T05:58:25.617Z,28.2
2018-01-13T06:01:22.936Z,28.2
2018-01-13T06:04:19.670Z,28.2
2018-01-13T06:13:11.880Z,28.2
2018-01-13T06:19:05.223Z,28.4
2018-01-13T06:22:01.659Z,28.4
2018-01-13T06:24:58.714Z,28.4
2018-01-13T06:27:55.653Z,28.4
2018-01-13T06:30:52.955Z,28.4
2018-01-13T06:36:46.707Z,28.4
2018-01-13T06:45:38.028Z,28.5
2018-01-13T06:48:35.779Z,28.6
2018-01-13T06:51:31.766Z,28.6
2018-01-13T06:54:28.946Z,28.6
2018-01-13T06:57:26.006Z,28.8
2018-01-13T07:00:22.705Z,28.8
2018-01-13T07:03:19.789Z,28.7
2018-01-13T07:06:16.673Z,28.6
2018-01-13T07:09:13.805Z,28.6
2018-01-13T07:12:21.772Z,28.7
2018-01-13T07:18:05.837Z,28.9
2018-01-13T07:21:02.746Z,28.9
2018-01-13T07:23:58.729Z,28.9
2018-01-13T07:26:55.766Z,29
2018-01-13T07:29:52.947Z,29.1
2018-01-13T07:32:49.701Z,29
2018-01-13T07:35:47.826Z,29.1
2018-01-13T07:38:44.000Z,29.2
2018-01-13T07:41:41.255Z,29.2
2018-01-13T07:47:35.830Z,29.4
2018-01-13T07:50:32.780Z,29.4
2018-01-13T07:53:29.778Z,29.4
2018-01-13T07:56:26.737Z,29.4
2018-01-13T07:59:22.936Z,29.4
2018-01-13T08:05:17.968Z,29.4
2018-01-13T08:17:05.005Z,29.4
2018-01-13T08:20:01.922Z,29.4
2018-01-13T08:28:54.037Z,29.4
2018-01-13T08:31:51.013Z,29.4
2018-01-13T08:34:47.173Z,29.4
2018-01-13T08:37:43.889Z,29.5
2018-01-13T08:40:42.091Z,29.4
2018-01-13T08:43:37.900Z,29.5
2018-01-13T08:46:36.048Z,29.6
2018-01-13T08:49:31.905Z,29.5
2018-01-13T08:55:25.977Z,29.6
2018-01-13T09:01:20.122Z,29.6
2018-01-13T09:04:16.986Z,29.6
2018-01-13T09:07:14.030Z,29.6
2018-01-13T09:10:11.157Z,29.6
2018-01-13T09:16:06.251Z,29.6
2018-01-13T09:19:01.950Z,29.6
2018-01-13T09:21:59.120Z,29.6
2018-01-13T09:27:53.278Z,29.5
2018-01-13T09:30:50.010Z,29.5
2018-01-13T09:33:47.055Z,29.4
2018-01-13T09:36:43.992Z,29.4
2018-01-13T09:39:41.997Z,29.4
2018-01-13T09:45:35.099Z,29.3
2018-01-13T09:48:33.074Z,29.3
2018-01-13T09:51:29.452Z,29.2
2018-01-13T09:57:23.079Z,29.1
2018-01-13T10:06:14.059Z,28.9
2018-01-13T10:09:11.023Z,28.8
2018-01-13T10:12:07.994Z,28.7
2018-01-13T10:15:06.052Z,28.7
2018-01-13T10:18:03.246Z,28.6
2018-01-13T10:21:00.125Z,28.6
2018-01-13T10:23:56.093Z,28.4
2018-01-13T10:26:52.957Z,28.4
2018-01-13T10:29:51.078Z,28.3
2018-01-13T10:32:47.988Z,28.2
2018-01-13T10:38:41.237Z,28
2018-01-13T10:41:38.053Z,28
2018-01-13T10:50:29.235Z,27.6
2018-01-13T10:53:26.140Z,27.5
2018-01-13T10:56:23.474Z,27.3
2018-01-13T10:59:19.989Z,27.2
2018-01-13T11:02:17.075Z,27
2018-01-13T11:05:14.576Z,26.9
2018-01-13T11:08:11.104Z,26.8
2018-01-13T11:11:09.044Z,26.7
2018-01-13T11:20:00.268Z,26.4
2018-01-13T11:22:56.991Z,26.2
2018-01-13T11:25:54.340Z,26.1
2018-01-13T11:28:51.023Z,26
2018-01-13T11:31:48.097Z,25.9
2018-01-13T11:34:45.032Z,25.8
2018-01-13T11:37:42.263Z,25.8
2018-01-13T11:40:39.052Z,25.7
2018-01-13T11:43:36.207Z,25.6
2018-01-13T11:46:32.992Z,25.6
2018-01-13T11:49:30.084Z,25.5
2018-01-13T11:55:24.085Z,25.3
2018-01-13T12:01:18.067Z,25.3
2018-01-13T12:04:15.004Z,25.2
2018-01-13T12:10:09.244Z,25.2
2018-01-13T12:13:06.172Z,25.2
2018-01-13T12:16:03.128Z,25.3
2018-01-13T12:19:00.507Z,25.3
2018-01-13T12:21:57.111Z,25.4
2018-01-13T12:24:54.183Z,25.3
2018-01-13T12:27:51.106Z,25.3
2018-01-13T12:30:48.051Z,25.3
2018-01-13T12:33:45.289Z,25.3
2018-01-13T12:39:39.071Z,25.2
2018-01-13T12:42:36.087Z,25.1
2018-01-13T12:45:33.257Z,25
2018-01-13T12:48:30.015Z,25
2018-01-13T12:51:27.377Z,24.9
2018-01-13T12:54:24.052Z,24.8
2018-01-13T12:57:21.132Z,24.7
2018-01-13T13:00:18.106Z,24.6
2018-01-13T13:03:15.086Z,24.6
2018-01-13T13:06:12.129Z,24.5
2018-01-13T13:09:09.195Z,24.4
2018-01-13T13:15:03.197Z,24.4
2018-01-13T13:18:00.131Z,24.3
2018-01-13T13:20:57.130Z,24.3
2018-01-13T13:29:48.222Z,24.2
2018-01-13T13:32:45.069Z,24.1
2018-01-13T13:35:42.165Z,24.1
2018-01-13T13:44:33.173Z,24
2018-01-13T13:47:30.152Z,24
2018-01-13T13:53:24.191Z,23.9
2018-01-13T13:56:21.120Z,23.9
2018-01-13T13:59:18.195Z,23.8
2018-01-13T14:02:15.166Z,23.7
2018-01-13T14:05:12.315Z,23.7
2018-01-13T14:08:09.151Z,23.6
2018-01-13T14:11:06.246Z,23.6
2018-01-13T14:14:03.112Z,23.5
2018-01-13T14:17:00.241Z,23.4
2018-01-13T14:19:57.315Z,23.4
2018-01-13T14:22:54.239Z,23.4
2018-01-13T14:25:51.162Z,23.4
2018-01-13T14:31:45.224Z,23.3
2018-01-13T14:34:42.169Z,23.2
2018-01-13T14:37:39.225Z,23.2
2018-01-13T14:40:36.131Z,23.2
2018-01-13T14:43:33.198Z,23.2
2018-01-13T14:46:30.180Z,23.1
2018-01-13T14:55:21.380Z,23
2018-01-13T14:58:18.135Z,23
2018-01-13T15:01:15.371Z,23
2018-01-13T15:04:12.308Z,22.9
2018-01-13T15:07:09.190Z,22.9
2018-01-13T15:10:06.225Z,22.9
2018-01-13T15:21:54.166Z,23
2018-01-13T15:24:51.257Z,23
2018-01-13T15:27:48.215Z,23.1
2018-01-13T15:30:45.150Z,23.1
2018-01-13T15:33:42.212Z,23.2
2018-01-13T15:36:39.272Z,23.2
2018-01-13T15:42:33.281Z,23.3
2018-01-13T15:45:30.126Z,23.4
2018-01-13T15:48:27.215Z,23.4
2018-01-13T15:54:22.126Z,23.4
2018-01-13T16:00:15.305Z,23.4
2018-01-13T16:09:06.360Z,23.4
2018-01-13T16:12:03.277Z,23.5
2018-01-13T16:15:00.288Z,23.4
2018-01-13T16:20:54.252Z,23.4
2018-01-13T16:23:51.373Z,23.5
2018-01-13T16:26:48.334Z,23.5
2018-01-13T16:29:45.325Z,23.4
2018-01-13T16:35:39.326Z,23.4
2018-01-13T16:41:33.265Z,23.4
2018-01-13T16:47:27.207Z,23.4
2018-01-13T16:56:18.212Z,23.6
2018-01-13T16:59:15.272Z,23.6
2018-01-13T17:02:12.331Z,23.6
2018-01-13T17:05:09.144Z,23.6
2018-01-13T17:08:06.277Z,23.6
2018-01-13T17:11:03.288Z,23.6
2018-01-13T17:14:00.236Z,23.6
2018-01-13T17:16:57.281Z,23.6
2018-01-13T17:19:54.456Z,23.6
2018-01-13T17:25:48.266Z,23.5
2018-01-13T17:31:42.282Z,23.3
2018-01-13T17:34:39.285Z,23.2
2018-01-13T17:37:36.482Z,23.2
2018-01-13T17:40:33.153Z,23.2
2018-01-13T17:43:30.361Z,23.1
2018-01-13T17:46:27.311Z,23
2018-01-13T17:49:24.261Z,23.1
2018-01-13T17:52:21.367Z,23.1
2018-01-13T17:55:18.289Z,23
2018-01-13T17:58:15.291Z,23
2018-01-13T18:01:12.231Z,22.9
2018-01-13T18:07:06.313Z,22.9
2018-01-13T18:10:03.252Z,22.8
2018-01-13T18:13:00.309Z,22.8
2018-01-13T18:18:54.362Z,22.7
2018-01-13T18:24:48.289Z,22.6
2018-01-13T18:27:45.259Z,22.6
2018-01-13T18:30:42.277Z,22.6
2018-01-13T18:33:39.209Z,22.7
2018-01-13T18:36:36.286Z,22.7
2018-01-13T18:39:33.227Z,22.6
2018-01-13T18:42:30.449Z,22.6
2018-01-13T18:45:27.277Z,22.6
2018-01-13T18:51:21.428Z,22.7
2018-01-13T18:54:18.395Z,22.7
2018-01-13T18:57:15.295Z,22.7
2018-01-13T19:00:12.303Z,22.8
2018-01-13T19:03:09.322Z,22.9
2018-01-13T19:06:06.322Z,22.9
2018-01-13T19:09:03.369Z,23
2018-01-13T19:12:01.230Z,23.1
2018-01-13T19:17:54.744Z,23.3
2018-01-13T19:20:51.256Z,23.3
2018-01-13T19:23:48.351Z,23.4
2018-01-13T19:26:45.207Z,23.4
2018-01-13T19:29:42.408Z,23.4
2018-01-13T19:32:39.236Z,23.4
2018-01-13T19:35:36.276Z,23.5
2018-01-13T19:44:28.404Z,23.6
2018-01-13T19:47:24.321Z,23.6
2018-01-13T19:50:21.329Z,23.6
2018-01-13T19:53:18.303Z,23.6
2018-01-13T19:56:15.484Z,23.6
2018-01-13T19:59:12.425Z,23.6
2018-01-13T20:05:06.553Z,23.6
2018-01-13T20:08:03.270Z,23.6
2018-01-13T20:11:00.814Z,23.7
2018-01-13T20:13:58.571Z,23.7
2018-01-13T20:16:54.375Z,23.7
2018-01-13T20:19:51.710Z,23.7
2018-01-13T20:22:48.386Z,23.7
2018-01-13T20:25:45.440Z,23.7
2018-01-13T20:28:42.324Z,23.7
2018-01-13T20:31:39.417Z,23.7
2018-01-13T20:34:36.455Z,23.6
2018-01-13T20:37:33.292Z,23.6
2018-01-13T20:43:27.513Z,23.7
2018-01-13T20:49:21.927Z,23.6
2018-01-13T20:52:18.376Z,23.6
2018-01-13T20:58:12.368Z,23.6
2018-01-13T21:01:09.482Z,23.7
2018-01-13T21:07:03.367Z,23.6
2018-01-13T21:10:01.393Z,23.6
2018-01-13T21:12:57.345Z,23.6
2018-01-13T21:15:54.322Z,23.6
2018-01-13T21:18:51.402Z,23.6
2018-01-13T21:21:48.276Z,23.6
2018-01-13T21:24:45.444Z,23.6
2018-01-13T21:27:42.358Z,23.6
2018-01-13T21:30:39.505Z,23.6
2018-01-13T21:39:30.540Z,23.6
2018-01-13T21:42:27.347Z,23.6
2018-01-13T21:45:24.521Z,23.6
2018-01-13T21:48:21.520Z,23.5
2018-01-13T21:51:18.367Z,23.5
2018-01-13T21:57:12.398Z,23.5
2018-01-13T22:00:09.427Z,23.5
2018-01-13T22:03:06.448Z,23.5
2018-01-13T22:09:01.515Z,23.4
2018-01-13T22:11:57.413Z,23.4
2018-01-13T22:14:54.427Z,23.4
2018-01-13T22:17:51.405Z,23.4
2018-01-13T22:20:48.415Z,23.4
2018-01-13T22:23:45.327Z,23.4
2018-01-13T22:26:42.712Z,23.4
2018-01-13T22:32:36.846Z,23.4
2018-01-13T22:35:33.439Z,23.4
2018-01-13T22:41:28.031Z,23.3
2018-01-13T22:44:24.337Z,23.3
2018-01-13T22:47:22.634Z,23.3
2018-01-13T22:50:18.418Z,23.3
2018-01-13T22:53:15.692Z,23.3
2018-01-13T22:56:12.456Z,23.2
2018-01-13T22:59:09.457Z,23.2
2018-01-13T23:02:06.373Z,23.2
2018-01-13T23:05:03.467Z,23.2
2018-01-13T23:08:01.429Z,23.2
2018-01-13T23:16:52.437Z,23.1
2018-01-13T23:19:48.455Z,23.1
2018-01-13T23:22:45.482Z,23
2018-01-13T23:28:40.784Z,23
2018-01-13T23:31:37.564Z,23
2018-01-13T23:34:33.433Z,23
2018-01-13T23:40:28.022Z,22.9
2018-01-13T23:43:25.717Z,22.9
2018-01-13T23:49:19.688Z,22.9
2018-01-13T23:52:15.826Z,22.8
2018-01-13T23:55:13.711Z,22.8
